createdAt,value
2022-12-11T00:04:03.262Z,28.42
2022-12-11T00:09:04.968Z,30.38
2022-12-11T00:14:06.529Z,38.97
2022-12-11T00:19:08.197Z,34.10
2022-12-11T00:24:09.869Z,38.72
2022-12-11T00:29:14.609Z,38.72
2022-12-11T00:34:16.278Z,43.08
2022-12-11T00:39:17.858Z,47.83
2022-12-11T00:44:19.465Z,47.15
2022-12-11T00:49:21.057Z,46.90
2022-12-11T00:54:22.621Z,43.42
2022-12-11T00:59:24.202Z,48.13
2022-12-11T01:04:26.549Z,46.67
2022-12-11T01:09:46.684Z,50.80
2022-12-11T01:14:48.243Z,48.67
2022-12-11T01:19:49.830Z,48.97
2022-12-11T01:24:51.413Z,50.88
2022-12-11T01:29:53.005Z,48.03
2022-12-11T01:34:54.778Z,51.15
2022-12-11T01:39:56.425Z,55.28
2022-12-11T01:45:27.530Z,55.47
2022-12-11T01:50:31.544Z,57.50
2022-12-11T01:55:33.892Z,58.85
2022-12-11T02:00:35.538Z,60.42
2022-12-11T02:05:37.172Z,61.70
2022-12-11T02:10:44.363Z,62.55
2022-12-11T02:16:03.343Z,57.67
2022-12-11T02:21:22.244Z,57.28
2022-12-11T02:26:42.368Z,60.30
2022-12-11T02:31:53.728Z,62.90
2022-12-11T02:37:01.644Z,56.65
2022-12-11T02:42:04.127Z,64.78
2022-12-11T02:47:08.768Z,65.90
2022-12-11T02:52:14.253Z,67.57
2022-12-11T02:57:35.934Z,63.38
2022-12-11T03:02:39.426Z,60.97
2022-12-11T03:07:43.451Z,69.13
2022-12-11T03:12:53.228Z,75.50
2022-12-11T03:18:13.107Z,72.10
2022-12-11T03:28:25.829Z,57.92
2022-12-11T03:33:36.607Z,64.53
2022-12-11T03:38:51.922Z,56.08
2022-12-11T03:43:57.147Z,63.78
2022-12-11T03:49:03.324Z,62.05
2022-12-11T03:54:05.721Z,65.45
2022-12-11T03:59:09.750Z,65.00
2022-12-11T04:04:11.429Z,62.97
2022-12-11T04:09:13.183Z,59.00
2022-12-11T04:14:33.117Z,58.10
2022-12-11T04:19:53.179Z,63.15
2022-12-11T04:24:54.782Z,56.95
2022-12-11T04:29:56.336Z,53.60
2022-12-11T04:34:57.902Z,57.20
2022-12-11T04:39:59.456Z,58.85
2022-12-11T04:45:01.107Z,56.55
2022-12-11T04:50:03.846Z,62.53
2022-12-11T04:55:07.624Z,58.97
2022-12-11T05:00:11.438Z,55.30
2022-12-11T05:05:13.517Z,56.42
2022-12-11T05:10:15.320Z,54.63
2022-12-11T05:15:17.082Z,55.90
2022-12-11T05:20:18.737Z,56.85
2022-12-11T05:25:20.283Z,57.88
2022-12-11T05:30:21.913Z,53.75
2022-12-11T05:35:23.458Z,51.00
2022-12-11T05:40:25.067Z,54.65
2022-12-11T05:45:26.603Z,55.03
2022-12-11T05:50:28.219Z,58.20
2022-12-11T05:55:29.744Z,54.17
2022-12-11T06:00:35.916Z,53.35
2022-12-11T06:05:39.470Z,54.67
2022-12-11T06:10:48.735Z,52.30
2022-12-11T06:15:50.433Z,54.47
2022-12-11T06:20:51.996Z,50.65
2022-12-11T06:25:53.594Z,53.92
2022-12-11T06:30:59.215Z,59.78
2022-12-11T06:36:05.888Z,54.08
2022-12-11T06:41:08.515Z,56.42
2022-12-11T06:46:13.349Z,57.50
2022-12-11T06:51:17.242Z,54.85
2022-12-11T06:56:19.154Z,54.65
2022-12-11T07:01:25.998Z,53.70
2022-12-11T07:06:28.582Z,57.35
2022-12-11T07:11:30.171Z,54.08
2022-12-11T07:16:31.765Z,56.85
2022-12-11T07:21:33.486Z,58.88
2022-12-11T07:26:37.584Z,57.50
2022-12-11T07:31:39.215Z,58.15
2022-12-11T07:36:41.207Z,55.25
2022-12-11T07:41:43.170Z,52.47
2022-12-11T07:46:47.481Z,55.20
2022-12-11T07:51:50.111Z,47.17
2022-12-11T07:56:53.921Z,49.30
2022-12-11T08:01:55.793Z,44.65
2022-12-11T08:06:57.707Z,47.22
2022-12-11T08:11:59.264Z,45.05
2022-12-11T08:17:02.459Z,44.35
2022-12-11T08:22:04.233Z,49.38
2022-12-11T08:27:05.946Z,43.33
2022-12-11T08:32:12.061Z,42.05
2022-12-11T08:37:14.068Z,40.97
2022-12-11T08:42:15.641Z,43.35
2022-12-11T08:47:17.687Z,40.83
2022-12-11T08:52:21.627Z,39.03
2022-12-11T08:57:25.601Z,41.50
2022-12-11T09:02:27.222Z,44.08
2022-12-11T09:07:28.788Z,43.65
2022-12-11T09:12:31.279Z,41.17
2022-12-11T09:17:35.433Z,44.13
2022-12-11T09:22:37.055Z,41.95
2022-12-11T09:27:38.665Z,42.08
2022-12-11T09:32:40.207Z,44.90
2022-12-11T09:37:41.798Z,46.97
2022-12-11T09:43:28.750Z,46.22
2022-12-11T09:48:34.112Z,42.60
2022-12-11T09:53:36.895Z,44.63
2022-12-11T09:58:38.457Z,43.83
2022-12-11T10:04:07.929Z,47.28
2022-12-11T10:09:34.084Z,44.83
2022-12-11T10:14:54.018Z,44.90
2022-12-11T10:20:00.446Z,49.03
2022-12-11T10:25:13.883Z,43.42
2022-12-11T10:30:30.389Z,43.58
2022-12-11T10:35:53.741Z,41.17
2022-12-11T10:40:58.672Z,42.20
2022-12-11T10:46:00.489Z,39.10
2022-12-11T10:51:05.489Z,36.53
2022-12-11T10:56:10.029Z,40.67
2022-12-11T11:01:19.115Z,36.38
2022-12-11T11:06:22.741Z,37.45
2022-12-11T11:11:29.903Z,34.75
2022-12-11T11:16:32.062Z,34.20
2022-12-11T11:21:35.861Z,37.80
2022-12-11T11:27:11.154Z,35.15
2022-12-11T11:32:14.480Z,37.60
2022-12-11T11:37:31.845Z,33.88
2022-12-11T11:42:45.772Z,35.20
2022-12-11T11:47:59.902Z,33.60
2022-12-11T11:53:14.366Z,29.65
2022-12-11T11:58:23.092Z,29.27
2022-12-11T12:03:25.644Z,28.40
2022-12-11T12:08:41.681Z,30.00
2022-12-11T12:14:22.789Z,34.35
2022-12-11T12:20:05.353Z,31.95
2022-12-11T12:25:25.774Z,28.35
2022-12-11T12:30:34.574Z,31.20
2022-12-11T12:35:50.427Z,28.73
2022-12-11T12:41:04.125Z,29.73
2022-12-11T12:46:21.529Z,27.25
2022-12-11T12:51:23.841Z,31.85
2022-12-11T12:56:27.911Z,30.13
2022-12-11T13:01:31.484Z,24.52
2022-12-11T13:06:39.186Z,28.27
2022-12-11T13:11:41.115Z,28.30
2022-12-11T13:16:47.838Z,25.75
2022-12-11T13:21:58.054Z,27.05
2022-12-11T13:27:23.908Z,28.55
2022-12-11T13:32:31.010Z,30.80
2022-12-11T13:37:36.708Z,29.20
2022-12-11T13:42:50.368Z,30.92
2022-12-11T13:47:52.052Z,33.65
2022-12-11T13:52:55.668Z,31.20
2022-12-11T13:57:57.935Z,33.63
2022-12-11T14:03:04.731Z,31.55
2022-12-11T14:08:11.736Z,30.75
2022-12-11T14:13:20.561Z,37.97
2022-12-11T14:18:26.623Z,39.67
2022-12-11T14:23:33.962Z,32.88
2022-12-11T14:28:41.531Z,37.45
2022-12-11T14:33:48.622Z,39.38
2022-12-11T14:38:57.184Z,39.95
2022-12-11T14:44:01.886Z,40.33
2022-12-11T14:49:08.848Z,42.10
2022-12-11T14:54:38.602Z,38.85
2022-12-11T14:59:45.822Z,39.42
2022-12-11T15:05:00.863Z,37.03
2022-12-11T15:10:04.123Z,39.95
2022-12-11T15:15:07.454Z,46.35
2022-12-11T15:20:19.958Z,40.08
2022-12-11T15:25:23.862Z,40.30
2022-12-11T15:30:30.132Z,37.97
2022-12-11T15:35:31.836Z,39.72
2022-12-11T15:40:33.434Z,40.35
2022-12-11T15:45:35.742Z,42.70
2022-12-11T15:50:37.299Z,38.55
2022-12-11T15:55:39.296Z,36.00
2022-12-11T16:00:41.038Z,38.17
2022-12-11T16:05:42.877Z,37.25
2022-12-11T16:10:45.637Z,40.80
2022-12-11T16:15:48.884Z,39.42
2022-12-11T16:20:53.400Z,40.65
2022-12-11T16:25:54.966Z,39.35
2022-12-11T16:30:56.588Z,42.20
2022-12-11T16:35:59.223Z,41.00
2022-12-11T16:41:01.810Z,43.83
2022-12-11T16:46:03.795Z,44.92
2022-12-11T16:51:05.679Z,44.17
2022-12-11T16:56:08.530Z,42.95
2022-12-11T17:01:14.738Z,44.53
2022-12-11T17:06:17.668Z,41.40
2022-12-11T17:11:22.335Z,39.55
2022-12-11T17:16:26.207Z,43.72
2022-12-11T17:21:27.890Z,44.20
2022-12-11T17:26:29.504Z,44.78
2022-12-11T17:31:31.181Z,44.58
2022-12-11T17:36:33.211Z,45.72
2022-12-11T17:41:34.766Z,46.35
2022-12-11T17:46:36.365Z,46.80
2022-12-11T17:51:38.063Z,50.92
2022-12-11T17:56:42.010Z,48.78
2022-12-11T18:01:43.678Z,50.70
2022-12-11T18:06:45.303Z,51.10
2022-12-11T18:11:46.974Z,44.08
2022-12-11T18:16:48.823Z,50.10
2022-12-11T18:21:50.481Z,52.28
2022-12-11T18:26:52.038Z,55.88
2022-12-11T18:31:54.015Z,57.45
2022-12-11T18:36:55.660Z,51.55
2022-12-11T18:42:24.361Z,66.82
2022-12-11T18:47:18.804Z,64.95
2022-12-11T18:52:20.494Z,66.07
2022-12-11T18:57:22.262Z,56.13
2022-12-11T19:02:23.895Z,58.67
2022-12-11T19:07:25.551Z,63.33
2022-12-11T19:12:27.149Z,63.38
2022-12-11T19:17:28.713Z,64.03
2022-12-11T19:22:30.266Z,65.13
2022-12-11T19:27:32.061Z,59.03
2022-12-11T19:32:36.423Z,56.17
2022-12-11T19:37:38.235Z,59.88
2022-12-11T19:42:40.038Z,61.17
2022-12-11T19:47:41.629Z,62.50
2022-12-11T19:52:46.328Z,59.47
2022-12-11T19:57:48.209Z,64.05
2022-12-11T20:02:49.773Z,58.78
2022-12-11T20:07:52.149Z,59.40
2022-12-11T20:12:56.573Z,59.53
2022-12-11T20:18:00.249Z,51.65
2022-12-11T20:23:03.380Z,50.05
2022-12-11T20:28:05.176Z,55.33
2022-12-11T20:33:06.763Z,49.63
2022-12-11T20:38:09.131Z,47.95
2022-12-11T20:43:10.803Z,51.72
2022-12-11T20:48:12.394Z,53.78
2022-12-11T20:53:13.947Z,52.33
2022-12-11T20:58:15.564Z,54.58
2022-12-11T21:03:17.379Z,53.17
2022-12-11T21:08:18.978Z,52.20
2022-12-11T21:13:20.599Z,57.00
2022-12-11T21:18:22.160Z,49.17
2022-12-11T21:23:23.696Z,55.67
2022-12-11T21:28:29.286Z,48.70
2022-12-11T21:33:34.827Z,45.65
2022-12-11T21:38:36.573Z,52.33
2022-12-11T21:43:52.562Z,51.75
2022-12-11T21:48:59.913Z,51.95
2022-12-11T21:54:01.531Z,51.22
2022-12-11T21:59:03.235Z,47.75
2022-12-11T22:04:06.803Z,51.05
2022-12-11T22:09:08.630Z,49.92
2022-12-11T22:14:13.254Z,47.65
2022-12-11T22:19:14.864Z,50.60
2022-12-11T22:24:16.426Z,46.65
2022-12-11T22:29:18.024Z,44.35
2022-12-11T22:34:19.662Z,47.20
2022-12-11T22:39:21.222Z,40.60
2022-12-11T22:44:22.794Z,35.80
2022-12-11T22:49:24.326Z,41.50
2022-12-11T22:54:25.977Z,41.85
2022-12-11T22:59:27.629Z,36.65
2022-12-11T23:04:29.187Z,41.35
2022-12-11T23:09:30.778Z,36.75
2022-12-11T23:14:32.351Z,35.97
2022-12-11T23:19:34.666Z,38.00
2022-12-11T23:24:36.221Z,37.03
2022-12-11T23:29:37.847Z,31.40
2022-12-11T23:34:39.399Z,40.10
2022-12-11T23:39:40.951Z,41.35
2022-12-11T23:44:42.490Z,43.45
2022-12-11T23:49:44.053Z,40.95
2022-12-11T23:54:45.589Z,43.88
2022-12-11T23:59:47.266Z,43.45
